Creighton, South Dakota
Current Conditions -  °F | °C
As of 5:55 PM on Monday 20 Oct 2014 (Local Time) from KPHP Reporting Station
Clear Clear  
Wind Chill: 64°   Ceiling: Unl
Heat Index: 64°   Visibility: 10mi
Dew Point: 43°   Wind: 7mph
Humidity: 46%   Direction: 110°ESE
Pressure: 29.9"   Gusts: NA
Location:  44.29°N, 102.14°W
Report Text: KPHP 202355Z AUTO 11006KT 10SM CLR 18/06 A2990 RMK AO2 SLP126 T01780061 10267 20178 56011
Loading
Personal Weather Stations






























Interactive Weather Map
Tropical Storm Tracking
New forecast layout! Learn more

10-Day Weather Forecast

Advertisements
Track Severe Weather on mobile